Time;durP1;ratioP1;P1;durP2;ratioP2;P2;SDS_P1;SDS_P2;PMS_P1;PMS_P2;Temp;Humidity;BMP_temperature;BMP_pressure;BME280_temperature;BME280_humidity;BME280_pressure;Samples;Min_cycle;Max_cycle;Signal;HPM_P1;HPM_P2
2021/04/08 00:02:06;;;;;;;8.13;1.58;;;;;;;0.73;100.00;102156.41;3603962;39;20047;-64
2021/04/08 00:04:32;;;;;;;11.50;1.55;;;;;;;0.86;100.00;102158.69;3604398;39;20084;-64
2021/04/08 00:06:58;;;;;;;7.07;1.27;;;;;;;0.97;100.00;102158.41;3602832;39;20046;-65
2021/04/08 00:09:24;;;;;;;8.40;1.42;;;;;;;1.11;100.00;102165.09;3602790;39;20083;-64
2021/04/08 00:14:18;;;;;;;7.80;1.58;;;;;;;1.23;100.00;102156.78;3658196;22;20498;-64
2021/04/08 00:16:44;;;;;;;6.55;1.50;;;;;;;1.22;100.00;102155.03;3590836;40;20048;-64
2021/04/08 00:19:10;;;;;;;10.38;1.42;;;;;;;1.26;100.00;102164.66;3590102;39;20054;-64
2021/04/08 00:21:37;;;;;;;10.15;1.52;;;;;;;1.34;100.00;102167.09;3589051;39;20150;-64
2021/04/08 00:24:04;;;;;;;8.10;1.63;;;;;;;1.36;100.00;102174.09;3590196;39;20333;-65
2021/04/08 00:26:30;;;;;;;6.25;1.42;;;;;;;1.46;100.00;102176.47;3589004;39;20109;-65
2021/04/08 00:28:56;;;;;;;10.75;1.50;;;;;;;1.47;100.00;102175.56;3590562;39;20043;-62
2021/04/08 00:31:23;;;;;;;3.15;1.10;;;;;;;1.47;100.00;102178.22;3589622;39;20179;-65
2021/04/08 00:33:48;;;;;;;10.52;1.75;;;;;;;1.51;100.00;102179.88;3586077;39;20040;-65
2021/04/08 00:36:15;;;;;;;11.35;2.20;;;;;;;1.51;100.00;102180.72;3586051;39;20136;-63
2021/04/08 00:38:40;;;;;;;9.50;1.55;;;;;;;1.48;100.00;102179.97;3586573;39;20059;-63
2021/04/08 00:41:06;;;;;;;8.80;1.40;;;;;;;1.50;100.00;102179.00;3585614;39;20145;-63
2021/04/08 00:43:32;;;;;;;11.10;1.73;;;;;;;1.56;100.00;102180.59;3587020;39;21726;-64
2021/04/08 00:45:58;;;;;;;9.55;1.42;;;;;;;1.61;100.00;102180.47;3586590;39;20036;-63
2021/04/08 00:48:25;;;;;;;9.15;1.25;;;;;;;1.67;100.00;102177.63;3586392;39;20529;-64
2021/04/08 00:50:51;;;;;;;5.50;1.10;;;;;;;1.71;100.00;102180.16;3586543;39;20120;-63
2021/04/08 00:53:21;;;;;;;7.18;1.52;;;;;;;1.71;100.00;102176.63;3585733;39;20062;-64
2021/04/08 00:55:51;;;;;;;7.00;1.23;;;;;;;1.70;100.00;102170.44;3585818;39;20075;-64
2021/04/08 00:58:18;;;;;;;8.93;1.90;;;;;;;1.68;100.00;102180.25;3586889;39;20132;-64
2021/04/08 01:00:45;;;;;;;6.22;1.50;;;;;;;1.71;100.00;102182.81;3584496;39;20052;-64
2021/04/08 01:03:11;;;;;;;4.32;1.30;;;;;;;1.68;100.00;102180.25;3586052;39;20058;-64
2021/04/08 01:05:39;;;;;;;6.03;1.35;;;;;;;1.66;100.00;102174.09;3586131;39;20080;-64
2021/04/08 01:08:06;;;;;;;11.80;2.38;;;;;;;1.64;100.00;102183.91;3585358;39;20062;-63
2021/04/08 01:10:32;;;;;;;11.07;1.40;;;;;;;1.62;100.00;102184.84;3586308;39;20060;-64
2021/04/08 01:13:01;;;;;;;8.77;1.30;;;;;;;1.61;100.00;102191.09;3585994;39;20047;-64
2021/04/08 01:15:28;;;;;;;5.88;1.30;;;;;;;1.52;100.00;102187.78;3588145;39;20043;-64
2021/04/08 01:18:00;;;;;;;5.55;1.10;;;;;;;1.47;100.00;102188.81;3598199;39;20374;-64
2021/04/08 01:20:45;;;;;;;5.90;1.50;;;;;;;1.43;100.00;102192.47;3597562;39;20199;-65
2021/04/08 01:23:54;;;;;;;6.15;1.27;;;;;;;1.30;100.00;102190.19;3597203;39;20048;-64
2021/04/08 01:26:56;;;;;;;11.88;1.60;;;;;;;1.28;100.00;102205.28;3595988;39;20048;-64
2021/04/08 01:29:33;;;;;;;11.05;1.40;;;;;;;1.16;100.00;102201.19;3596186;39;20382;-64
2021/04/08 01:32:02;;;;;;;10.32;1.63;;;;;;;1.00;100.00;102211.34;3597046;39;20148;-63
2021/04/08 01:34:32;;;;;;;6.97;1.35;;;;;;;1.00;100.00;102202.50;3587940;39;20065;-63
2021/04/08 01:37:01;;;;;;;6.53;1.40;;;;;;;0.96;100.00;102204.38;3587091;39;20595;-63
2021/04/08 01:39:28;;;;;;;6.97;1.30;;;;;;;0.86;100.00;102194.94;3587361;39;20074;-64
2021/04/08 01:41:55;;;;;;;8.85;1.65;;;;;;;0.81;100.00;102204.75;3586908;39;20108;-63
2021/04/08 01:44:23;;;;;;;8.68;1.63;;;;;;;0.82;100.00;102209.16;3587441;39;20129;-63
2021/04/08 01:46:52;;;;;;;8.10;1.85;;;;;;;0.78;100.00;102204.84;3587500;39;20050;-65
2021/04/08 01:49:20;;;;;;;12.90;1.77;;;;;;;0.85;100.00;102201.13;3588620;39;20052;-64
2021/04/08 01:51:46;;;;;;;8.63;1.55;;;;;;;0.91;100.00;102202.75;3598733;39;20063;-65
2021/04/08 01:54:14;;;;;;;5.82;1.30;;;;;;;0.99;100.00;102204.28;3597487;39;20091;-65
2021/04/08 01:56:42;;;;;;;6.70;1.65;;;;;;;1.05;100.00;102198.81;3598463;39;20384;-63
2021/04/08 01:59:13;;;;;;;6.05;1.75;;;;;;;1.10;100.00;102208.44;3597617;39;20293;-62
2021/04/08 02:01:43;;;;;;;7.20;1.60;;;;;;;1.12;100.00;102214.56;3596918;39;20044;-64
2021/04/08 02:04:10;;;;;;;;;;;;;;;1.12;100.00;102209.25;3598276;39;20124;-65
2021/04/08 02:06:39;;;;;;;9.88;1.40;;;;;;;1.18;100.00;102214.41;3600077;39;20189;-64
2021/04/08 02:09:06;;;;;;;;;;;;;;;1.21;100.00;102211.66;3600769;39;20058;-65
2021/04/08 02:11:33;;;;;;;4.57;1.50;;;;;;;1.22;100.00;102210.72;3600427;39;19951;-64
2021/04/08 02:14:00;;;;;;;6.00;1.38;;;;;;;1.25;100.00;102215.94;3601972;39;20043;-63
2021/04/08 02:16:26;;;;;;;7.78;1.58;;;;;;;1.24;100.00;102211.59;3600753;39;20036;-64
2021/04/08 02:18:55;;;;;;;5.60;2.08;;;;;;;1.25;100.00;102210.66;3600576;39;20074;-71
2021/04/08 02:21:22;;;;;;;7.80;1.50;;;;;;;1.26;100.00;102212.41;3600813;39;20055;-63
2021/04/08 02:23:51;;;;;;;6.20;1.52;;;;;;;1.28;100.00;102213.25;3598550;39;20297;-64
2021/04/08 02:26:18;;;;;;;;;;;;;;;1.32;100.00;102206.91;3599709;39;20132;-63
2021/04/08 02:28:45;;;;;;;6.03;1.65;;;;;;;1.35;100.00;102201.53;3600300;39;19949;-64
2021/04/08 02:31:12;;;;;;;5.72;1.30;;;;;;;1.35;100.00;102203.31;3598486;39;20329;-65
2021/04/08 02:33:40;;;;;;;9.82;1.50;;;;;;;1.33;100.00;102198.06;3600724;39;20143;-64
2021/04/08 02:36:06;;;;;;;4.65;1.15;;;;;;;1.39;100.00;102203.19;3600502;39;20089;-64
2021/04/08 02:38:34;;;;;;;6.60;1.27;;;;;;;1.39;100.00;102197.00;3600322;39;20040;-65
2021/04/08 02:41:03;;;;;;;6.97;1.20;;;;;;;1.39;100.00;102191.72;3601263;39;20085;-64
2021/04/08 02:43:29;;;;;;;9.65;1.33;;;;;;;1.45;100.00;102193.31;3599859;39;20392;-63
2021/04/08 02:45:55;;;;;;;4.78;1.50;;;;;;;1.48;100.00;102190.56;3600920;39;20140;-64
2021/04/08 02:48:24;;;;;;;5.50;1.40;;;;;;;1.51;100.00;102187.81;3600913;39;20067;-64
2021/04/08 02:50:52;;;;;;;8.38;1.23;;;;;;;1.53;100.00;102193.94;3601759;39;20129;-66
2021/04/08 02:53:26;;;;;;;4.28;1.17;;;;;;;1.62;100.00;102193.69;3599571;39;20043;-65
2021/04/08 02:55:57;;;;;;;6.15;1.15;;;;;;;1.68;100.00;102187.31;3601013;39;20128;-64
2021/04/08 02:58:28;;;;;;;7.90;1.30;;;;;;;1.74;100.00;102195.13;3603350;39;20428;-64
2021/04/08 03:00:57;;;;;;;6.82;2.10;;;;;;;1.75;100.00;102196.84;3605866;39;20048;-65
2021/04/08 03:03:30;;;;;;;10.75;1.88;;;;;;;1.77;100.00;102197.69;3604318;39;20051;-66
2021/04/08 03:06:00;;;;;;;4.93;1.20;;;;;;;1.80;100.00;102186.09;3673980;22;20051;-65
2021/04/08 03:08:28;;;;;;;6.60;1.70;;;;;;;1.80;100.00;102196.72;3609105;39;20123;-66
2021/04/08 03:10:59;;;;;;;10.77;1.77;;;;;;;1.84;100.00;102198.34;3610870;39;20286;-66
2021/04/08 03:13:27;;;;;;;6.25;1.20;;;;;;;1.78;100.00;102206.50;3609255;39;20051;-64
2021/04/08 03:15:55;;;;;;;6.05;1.23;;;;;;;1.75;100.00;102205.69;3611304;39;20119;-65
2021/04/08 03:18:23;;;;;;;6.90;1.63;;;;;;;1.77;100.00;102202.97;3605663;39;20051;-65
2021/04/08 03:20:52;;;;;;;5.05;1.27;;;;;;;1.76;100.00;102206.53;3602803;39;20046;-64
2021/04/08 03:23:20;;;;;;;3.55;1.13;;;;;;;1.74;100.00;102203.06;3599196;39;20052;-66
2021/04/08 03:25:49;;;;;;;5.25;1.20;;;;;;;1.84;100.00;102207.19;3600262;39;20061;-65
2021/04/08 03:28:16;;;;;;;5.03;1.17;;;;;;;1.80;100.00;102205.53;3600501;39;20096;-66
2021/04/08 03:30:44;;;;;;;7.47;1.30;;;;;;;1.80;100.00;102207.34;3599509;39;20493;-65
2021/04/08 03:33:10;;;;;;;4.13;1.55;;;;;;;1.80;100.00;102207.34;3598194;39;20054;-65
2021/04/08 03:35:37;;;;;;;4.90;1.30;;;;;;;1.82;100.00;102211.66;3600875;39;20055;-64
2021/04/08 03:38:04;;;;;;;6.65;1.45;;;;;;;1.79;100.00;102214.41;3599373;39;20063;-65
2021/04/08 03:40:31;;;;;;;6.65;1.50;;;;;;;1.77;100.00;102204.75;3599544;39;20043;-65
2021/04/08 03:42:57;;;;;;;7.10;1.30;;;;;;;1.71;100.00;102214.66;3598670;39;20040;-65
2021/04/08 03:45:23;;;;;;;6.68;1.40;;;;;;;1.65;100.00;102212.19;3600304;39;20044;-66
2021/04/08 03:47:52;;;;;;;8.57;1.50;;;;;;;1.65;100.00;102212.19;3600726;39;20067;-65
2021/04/08 03:50:19;;;;;;;6.95;1.92;;;;;;;1.74;100.00;102208.38;3598327;39;20028;-66
2021/04/08 03:52:47;;;;;;;5.80;1.15;;;;;;;1.69;100.00;102211.19;3599851;39;20050;-66
2021/04/08 03:55:14;;;;;;;7.10;1.40;;;;;;;1.67;100.00;102205.03;3599280;39;20105;-67
2021/04/08 03:57:42;;;;;;;8.48;1.40;;;;;;;1.66;100.00;102208.59;3599271;39;20044;-65
2021/04/08 04:00:11;;;;;;;7.30;1.27;;;;;;;1.65;100.00;102209.53;3599685;39;20052;-66
2021/04/08 04:02:39;;;;;;;4.75;1.60;;;;;;;1.70;100.00;102207.59;3598323;39;20124;-65
2021/04/08 04:05:08;;;;;;;6.13;1.55;;;;;;;1.75;100.00;102213.66;3598534;39;20499;-64
2021/04/08 04:07:36;;;;;;;7.30;2.20;;;;;;;1.71;100.00;102216.44;3618828;39;20039;-66
2021/04/08 04:10:04;;;;;;;3.83;1.35;;;;;;;1.71;100.00;102214.66;3618320;39;20050;-65
2021/04/08 04:12:30;;;;;;;5.88;1.67;;;;;;;1.64;100.00;102210.44;3620000;39;20045;-65
2021/04/08 04:14:59;;;;;;;6.07;1.25;;;;;;;1.70;100.00;102217.34;3620654;39;20167;-64
2021/04/08 04:17:27;;;;;;;5.00;1.45;;;;;;;1.65;100.00;102211.28;3619311;39;20096;-67
2021/04/08 04:19:54;;;;;;;6.53;1.58;;;;;;;1.65;100.00;102217.50;3619025;39;20066;-64
2021/04/08 04:22:22;;;;;;;4.80;1.70;;;;;;;1.63;100.00;102221.94;3620073;39;20181;-65
2021/04/08 04:24:49;;;;;;;5.60;1.52;;;;;;;1.64;100.00;102212.22;3619306;39;20051;-66
2021/04/08 04:27:15;;;;;;;6.60;1.42;;;;;;;1.66;100.00;102221.00;3619984;39;20068;-65
2021/04/08 04:29:41;;;;;;;11.77;1.95;;;;;;;1.66;100.00;102226.31;3619092;39;20057;-67
2021/04/08 04:32:08;;;;;;;6.25;1.50;;;;;;;1.67;100.00;102222.75;3619314;39;20044;-65
2021/04/08 04:34:34;;;;;;;6.25;2.10;;;;;;;1.62;100.00;102229.97;3618853;39;20048;-65
2021/04/08 04:37:00;;;;;;;5.13;1.63;;;;;;;1.67;100.00;102228.91;3620421;39;20059;-65
2021/04/08 04:39:27;;;;;;;8.00;1.73;;;;;;;1.66;100.00;102221.88;3618642;39;20392;-65
2021/04/08 04:41:53;;;;;;;7.18;1.98;;;;;;;1.61;100.00;102228.25;3618628;39;20415;-65
2021/04/08 04:44:19;;;;;;;9.50;2.00;;;;;;;1.63;100.00;102221.09;3619222;39;20083;-65
2021/04/08 04:46:45;;;;;;;5.63;2.17;;;;;;;1.63;100.00;102226.41;3620610;39;20131;-66
2021/04/08 04:49:11;;;;;;;6.38;2.17;;;;;;;1.64;100.00;102229.00;3619244;39;20053;-66
2021/04/08 04:51:37;;;;;;;6.13;1.90;;;;;;;1.65;100.00;102219.25;3622109;39;20057;-65
2021/04/08 04:54:03;;;;;;;7.00;2.05;;;;;;;1.62;100.00;102220.25;3620245;39;20054;-66
2021/04/08 04:56:30;;;;;;;5.28;1.88;;;;;;;1.56;100.00;102217.75;3621488;39;20149;-65
2021/04/08 04:58:56;;;;;;;8.80;2.13;;;;;;;1.60;100.00;102221.19;3620132;39;20057;-65
2021/04/08 05:01:23;;;;;;;11.05;2.90;;;;;;;1.57;100.00;102217.69;3619833;39;20055;-65
2021/04/08 05:03:48;;;;;;;7.60;1.90;;;;;;;1.54;100.00;102217.78;3621219;39;20050;-65
2021/04/08 05:06:46;;;;;;;9.35;2.38;;;;;;;1.53;100.00;102217.81;3683384;22;20026;-65
2021/04/08 05:09:12;;;;;;;12.05;2.25;;;;;;;1.52;100.00;102218.75;3617809;39;20054;-65
2021/04/08 05:11:39;;;;;;;8.57;2.05;;;;;;;1.54;100.00;102230.19;3621562;39;20481;-65
2021/04/08 05:14:05;;;;;;;6.47;2.60;;;;;;;1.45;100.00;102236.63;3620231;39;20150;-65
2021/04/08 05:16:31;;;;;;;9.48;2.45;;;;;;;1.41;100.00;102237.63;3620703;39;20047;-65
2021/04/08 05:18:57;;;;;;;15.80;3.40;;;;;;;1.34;100.00;102234.28;3621349;39;20100;-65
2021/04/08 05:21:23;;;;;;;10.80;2.33;;;;;;;1.28;100.00;102239.78;3620527;39;20081;-66
2021/04/08 05:23:49;;;;;;;7.82;2.95;;;;;;;1.32;100.00;102237.88;3620800;39;20051;-66
2021/04/08 05:26:15;;;;;;;7.82;2.10;;;;;;;1.28;100.00;102226.50;3621231;39;20055;-64
2021/04/08 05:28:42;;;;;;;8.35;2.95;;;;;;;1.24;100.00;102230.16;3619554;39;20277;-65
2021/04/08 05:31:08;;;;;;;7.38;2.30;;;;;;;1.12;100.00;102227.81;3620519;39;20062;-65
2021/04/08 05:33:34;;;;;;;7.32;2.38;;;;;;;1.05;100.00;102232.44;3621855;39;20043;-64
2021/04/08 05:36:00;;;;;;;8.80;3.10;;;;;;;1.05;100.00;102235.06;3621066;39;20070;-64
2021/04/08 05:38:27;;;;;;;6.18;2.03;;;;;;;1.08;100.00;102235.00;3620094;39;20047;-64
2021/04/08 05:40:53;;;;;;;7.07;2.55;;;;;;;1.08;100.00;102239.44;3620884;39;20051;-64
2021/04/08 05:43:19;;;;;;;7.20;2.85;;;;;;;1.11;100.00;102242.00;3619506;39;20334;-64
2021/04/08 05:45:46;;;;;;;8.75;2.58;;;;;;;1.19;100.00;102242.66;3620379;39;20051;-64
2021/04/08 05:48:12;;;;;;;10.55;2.88;;;;;;;1.29;100.00;102241.50;3619123;39;20384;-64
2021/04/08 05:50:38;;;;;;;7.40;2.50;;;;;;;1.32;100.00;102236.09;3620975;39;20308;-64
2021/04/08 05:53:04;;;;;;;13.48;3.10;;;;;;;1.36;100.00;102243.06;3620144;39;20043;-64
2021/04/08 05:55:30;;;;;;;5.53;2.35;;;;;;;1.43;100.00;102246.44;3621982;39;20059;-64
2021/04/08 05:57:56;;;;;;;10.25;2.60;;;;;;;1.64;100.00;102238.78;3621159;39;20065;-64
2021/04/08 06:00:23;;;;;;;7.95;2.85;;;;;;;1.59;100.00;102241.56;3620748;39;20081;-64
2021/04/08 06:02:50;;;;;;;6.40;2.25;;;;;;;1.60;100.00;102237.13;3619328;39;20385;-64
2021/04/08 06:05:16;;;;;;;4.97;2.00;;;;;;;1.61;100.00;102244.16;3613496;39;20047;-64
2021/04/08 06:07:43;;;;;;;7.60;2.53;;;;;;;1.62;100.00;102240.56;3620889;39;20050;-65
2021/04/08 06:10:10;;;;;;;7.72;2.30;;;;;;;1.72;100.00;102242.94;3621029;39;20035;-65
2021/04/08 06:12:40;;;;;;;6.70;2.00;;;;;;;1.72;100.00;102242.94;3621629;39;20051;-66
2021/04/08 06:15:07;;;;;;;8.10;2.28;;;;;;;1.68;100.00;102245.69;3620714;39;20164;-65
2021/04/08 06:17:33;;;;;;;6.15;2.50;;;;;;;1.70;100.00;102244.75;3622904;39;20043;-66
2021/04/08 06:20:00;;;;;;;6.60;2.67;;;;;;;1.78;100.00;102241.00;3622185;39;20050;-64
2021/04/08 06:22:26;;;;;;;6.03;2.17;;;;;;;1.75;100.00;102242.84;3620899;39;20077;-65
2021/04/08 06:24:52;;;;;;;8.05;2.15;;;;;;;1.79;100.00;102242.75;3621289;39;20062;-66
2021/04/08 06:27:18;;;;;;;9.20;2.45;;;;;;;1.83;100.00;102244.41;3621971;39;20054;-65
2021/04/08 06:29:44;;;;;;;10.07;2.55;;;;;;;1.86;100.00;102249.63;3620121;39;20031;-65
2021/04/08 06:32:10;;;;;;;9.30;2.50;;;;;;;1.87;100.00;102246.03;3622086;39;20482;-64
2021/04/08 06:34:36;;;;;;;7.53;2.38;;;;;;;1.87;100.00;102251.34;3622333;39;20077;-65
2021/04/08 06:37:03;;;;;;;7.88;2.45;;;;;;;1.90;100.00;102246.81;3621890;39;20039;-66
2021/04/08 06:39:30;;;;;;;7.68;2.42;;;;;;;1.94;100.00;102244.94;3621850;39;20270;-64
2021/04/08 06:41:57;;;;;;;7.15;2.33;;;;;;;1.99;100.00;102244.78;3622860;39;20127;-66
2021/04/08 06:44:26;;;;;;;12.18;3.80;;;;;;;2.00;100.00;102250.06;3622124;39;20043;-65
2021/04/08 06:46:57;;;;;;;7.78;2.70;;;;;;;2.06;100.00;102247.25;3622648;39;20047;-64
2021/04/08 06:49:28;;;;;;;6.22;2.63;;;;;;;2.09;100.00;102256.88;3621624;39;20070;-66
2021/04/08 06:51:55;;;;;;;8.60;2.83;;;;;;;2.15;100.00;102253.16;3621244;39;20355;-67
2021/04/08 06:54:23;;;;;;;8.75;2.83;;;;;;;2.23;100.00;102259.13;3621295;39;20086;-66
2021/04/08 06:56:49;;;;;;;5.25;2.83;;;;;;;2.25;100.00;102257.28;3621028;39;20119;-66
2021/04/08 06:59:16;;;;;;;9.45;2.60;;;;;;;2.36;100.00;102264.94;3618946;39;20501;-66
2021/04/08 07:01:43;;;;;;;6.93;2.60;;;;;;;2.40;100.00;102267.44;3620267;39;20050;-65
2021/04/08 07:04:10;;;;;;;11.80;2.30;;;;;;;2.45;100.00;102269.94;3618337;39;20028;-65
2021/04/08 07:06:36;;;;;;;8.02;2.53;;;;;;;2.56;100.00;102273.13;3620113;39;21521;-66
2021/04/08 07:09:03;;;;;;;6.60;2.17;;;;;;;2.61;100.00;102268.53;3620483;39;20571;-65
2021/04/08 07:11:29;;;;;;;10.23;2.88;;;;;;;2.74;100.00;102270.78;3621029;39;20416;-66
2021/04/08 07:13:56;;;;;;;6.53;2.53;;;;;;;2.79;100.00;102272.38;3620240;39;20111;-66
2021/04/08 07:16:22;;;;;;;12.25;2.78;;;;;;;2.97;100.00;102278.88;3619630;39;20059;-65
2021/04/08 07:18:48;;;;;;;8.95;2.75;;;;;;;2.90;100.00;102277.34;3619672;39;20061;-66
2021/04/08 07:21:15;;;;;;;8.82;2.90;;;;;;;2.89;100.00;102272.06;3619029;39;20058;-66
2021/04/08 07:24:14;;;;;;;11.73;3.15;;;;;;;2.89;100.00;102280.06;3620848;39;20031;-65
2021/04/08 07:26:51;;;;;;;7.50;2.60;;;;;;;2.88;100.00;102278.31;3621164;39;20075;-65
2021/04/08 07:29:17;;;;;;;7.07;3.13;;;;;;;2.92;100.00;102274.63;3620104;39;20050;-65
2021/04/08 07:31:43;;;;;;;8.30;2.83;;;;;;;3.00;100.00;102279.69;3620832;39;20065;-66
2021/04/08 07:34:09;;;;;;;8.38;2.83;;;;;;;3.07;100.00;102276.75;3620501;39;20043;-65
2021/04/08 07:36:37;;;;;;;8.98;3.20;;;;;;;3.08;100.00;102270.53;3620392;39;20042;-65
2021/04/08 07:39:05;;;;;;;5.07;2.50;;;;;;;3.28;100.00;102263.63;3621392;39;20111;-65
2021/04/08 07:41:35;;;;;;;7.18;2.40;;;;;;;3.42;100.00;102274.66;3618392;39;20068;-65
2021/04/08 07:44:05;;;;;;;10.60;3.13;;;;;;;3.47;100.00;102278.00;3620300;39;20053;-64
2021/04/08 07:46:33;;;;;;;7.28;2.50;;;;;;;3.60;100.00;102272.25;3619956;39;20205;-65
2021/04/08 07:48:59;;;;;;;7.45;2.78;;;;;;;3.61;100.00;102268.69;3620287;39;20344;-66
2021/04/08 07:51:33;;;;;;;8.77;2.90;;;;;;;3.65;100.00;102272.94;3621592;39;20043;-65
2021/04/08 07:54:13;;;;;;;5.50;2.70;;;;;;;3.67;100.00;102279.09;3619929;39;20050;-65
2021/04/08 07:59:22;;;;;;;7.20;3.05;;;;;;;3.82;100.00;102273.19;3609554;22;20396;-65
2021/04/08 08:01:50;;;;;;;6.05;2.92;;;;;;;4.16;100.00;102274.56;3588904;40;20393;-64
2021/04/08 08:06:54;;;;;;;7.03;2.67;;;;;;;4.56;100.00;102265.00;3633696;22;20310;-64
2021/04/08 08:09:23;;;;;;;8.50;2.72;;;;;;;4.61;100.00;102256.81;3592124;40;20062;-65
2021/04/08 08:11:49;;;;;;;5.38;2.67;;;;;;;4.85;100.00;102259.38;3592801;40;21205;-64
2021/04/08 08:14:16;;;;;;;10.00;3.00;;;;;;;5.12;100.00;102251.97;3590851;40;20158;-63
2021/04/08 08:17:01;;;;;;;4.70;2.47;;;;;;;5.32;100.00;102258.28;3592645;40;20042;-65
2021/04/08 08:19:27;;;;;;;7.05;2.95;;;;;;;5.48;100.00;102253.09;3592661;40;20407;-65
2021/04/08 08:21:54;;;;;;;5.53;2.50;;;;;;;5.65;100.00;102250.53;3593276;40;20060;-65
2021/04/08 08:24:21;;;;;;;6.20;2.50;;;;;;;5.84;99.65;102261.25;3592480;39;20060;-64
2021/04/08 08:26:49;;;;;;;5.95;2.55;;;;;;;6.01;95.76;102247.16;3594225;40;20176;-64
2021/04/08 08:29:17;;;;;;;6.03;2.30;;;;;;;6.06;88.98;102254.94;3592951;40;20140;-65
2021/04/08 08:31:46;;;;;;;9.57;3.03;;;;;;;6.27;87.97;102256.59;3594170;40;20056;-65
2021/04/08 08:34:16;;;;;;;4.35;2.13;;;;;;;6.17;85.35;102249.06;3594109;40;20055;-66
2021/04/08 08:36:43;;;;;;;4.63;2.00;;;;;;;5.94;72.50;102251.84;3593908;40;20110;-66
2021/04/08 08:39:11;;;;;;;3.55;2.25;;;;;;;6.31;74.51;102255.47;3592952;40;20048;-66
2021/04/08 08:41:38;;;;;;;5.00;2.10;;;;;;;6.44;69.08;102249.56;3593795;40;20080;-65
2021/04/08 08:44:07;;;;;;;4.05;2.13;;;;;;;6.64;68.71;102245.88;3593370;40;20044;-64
2021/04/08 08:46:39;;;;;;;6.00;2.10;;;;;;;6.79;64.86;102247.81;3595070;40;20043;-65
2021/04/08 08:49:06;;;;;;;6.25;2.30;;;;;;;7.30;66.31;102245.22;3594545;40;20532;-65
2021/04/08 08:51:33;;;;;;;3.70;2.05;;;;;;;7.55;59.41;102230.47;3595849;40;20050;-65
2021/04/08 08:53:59;;;;;;;8.40;2.38;;;;;;;7.20;59.57;102233.25;3595214;40;20052;-65
2021/04/08 08:56:27;;;;;;;6.65;2.70;;;;;;;6.93;62.80;102235.53;3593387;40;20552;-65
2021/04/08 08:58:53;;;;;;;7.95;3.03;;;;;;;6.76;65.50;102245.28;3595119;40;20128;-65
2021/04/08 09:01:20;;;;;;;5.40;2.75;;;;;;;6.94;65.33;102243.47;3594076;40;20410;-65
2021/04/08 09:03:46;;;;;;;5.13;2.78;;;;;;;7.03;62.55;102242.16;3595381;40;20044;-65
2021/04/08 09:06:14;;;;;;;5.45;2.40;;;;;;;7.13;62.34;102253.25;3596134;40;20166;-64
2021/04/08 09:08:45;;;;;;;3.60;2.50;;;;;;;6.63;64.83;102246.84;3596643;40;20040;-65
2021/04/08 09:11:18;;;;;;;6.57;2.78;;;;;;;6.50;59.21;102235.88;3595800;40;20067;-66
2021/04/08 09:13:44;;;;;;;4.28;2.38;;;;;;;6.56;63.06;102248.94;3595501;40;20439;-65
2021/04/08 09:16:14;;;;;;;7.18;2.67;;;;;;;6.41;61.08;102245.22;3593162;40;20341;-64
2021/04/08 09:18:40;;;;;;;4.32;2.50;;;;;;;6.56;62.40;102243.59;3594138;40;20040;-65
2021/04/08 09:21:06;;;;;;;8.13;3.08;;;;;;;6.52;60.28;102249.19;3594309;40;20056;-67
2021/04/08 09:23:33;;;;;;;4.18;2.40;;;;;;;6.45;58.06;102251.31;3595282;40;20052;-66
2021/04/08 09:26:02;;;;;;;4.50;2.75;;;;;;;6.61;64.72;102246.03;3593007;40;20055;-65
2021/04/08 09:28:38;;;;;;;4.97;2.63;;;;;;;6.98;62.62;102254.91;3594402;40;20802;-65
2021/04/08 09:31:06;;;;;;;7.40;2.85;;;;;;;6.89;62.33;102250.00;3593219;40;20397;-66
2021/04/08 10:18:47;;;;;;;10.55;4.60;;;;;;;6.64;70.76;102236.06;3629069;22;20306;-67
2021/04/08 10:21:19;;;;;;;7.07;4.80;;;;;;;6.75;71.56;102237.34;3588926;39;20395;-65
2021/04/08 10:23:48;;;;;;;8.70;4.15;;;;;;;6.75;70.36;102242.69;3591042;39;20048;-65
2021/04/08 10:26:16;;;;;;;8.98;4.35;;;;;;;6.89;67.49;102250.91;3588583;39;20078;-65
2021/04/08 10:28:44;;;;;;;8.45;4.43;;;;;;;6.95;68.95;102239.88;3590168;39;20590;-65
2021/04/08 11:16:55;;;;;;;7.10;4.88;;;;;;;7.65;60.67;102201.38;3635573;22;20293;-65
2021/04/08 11:19:22;;;;;;;8.77;5.30;;;;;;;7.84;65.07;102217.31;3600094;39;20078;-64
2021/04/08 11:21:48;;;;;;;8.48;5.65;;;;;;;7.67;61.25;102200.38;3599439;39;20049;-67
2021/04/08 11:24:16;;;;;;;8.85;5.13;;;;;;;7.91;63.21;102213.34;3597741;39;20055;-65
2021/04/08 11:26:50;;;;;;;8.10;5.30;;;;;;;8.16;63.83;102203.94;3599171;39;20114;-66
2021/04/08 11:29:21;;;;;;;8.95;5.70;;;;;;;8.30;63.10;102192.41;3597581;39;20062;-66
2021/04/08 11:32:03;;;;;;;8.05;5.50;;;;;;;8.30;60.45;102193.25;3600134;39;20044;-66
2021/04/08 11:34:40;;;;;;;14.32;6.15;;;;;;;8.32;61.60;102194.06;3599988;39;20067;-65
2021/04/08 11:37:06;;;;;;;8.68;5.50;;;;;;;8.03;59.06;102195.72;3599706;39;20131;-65
2021/04/08 11:39:32;;;;;;;9.45;5.60;;;;;;;8.05;61.66;102199.16;3600081;39;20068;-66
2021/04/08 11:42:16;;;;;;;8.82;5.72;;;;;;;7.92;61.71;102198.13;3600931;39;20044;-64
2021/04/08 11:44:43;;;;;;;8.82;5.88;;;;;;;8.18;61.08;102204.69;3599526;39;20150;-65
2021/04/08 11:47:17;;;;;;;9.32;5.78;;;;;;;8.16;61.31;102183.34;3599054;39;20051;-66
2021/04/08 11:49:45;;;;;;;12.00;5.70;;;;;;;7.91;62.62;102180.34;3600629;39;20047;-65
2021/04/08 11:52:12;;;;;;;10.85;6.63;;;;;;;7.47;61.64;102176.47;3599616;39;20063;-66
2021/04/08 11:54:57;;;;;;;8.88;5.93;;;;;;;7.77;67.00;102173.91;3599956;39;20048;-66
2021/04/08 11:57:23;;;;;;;9.45;6.00;;;;;;;7.77;64.80;102186.44;3597556;39;20432;-65
2021/04/08 11:59:49;;;;;;;13.10;6.15;;;;;;;7.57;64.42;102177.69;3597852;39;20386;-65
2021/04/08 12:02:29;;;;;;;13.18;6.63;;;;;;;7.73;65.51;102177.72;3599323;39;20063;-65
2021/04/08 12:04:55;;;;;;;8.07;5.63;;;;;;;7.36;65.35;102164.53;3600078;39;20426;-65
2021/04/08 12:07:21;;;;;;;9.52;6.10;;;;;;;7.42;67.33;102170.47;3599649;39;20115;-67
2021/04/08 12:09:48;;;;;;;10.15;6.18;;;;;;;7.57;68.20;102169.66;3599114;39;20094;-66
2021/04/08 12:12:14;;;;;;;10.55;6.15;;;;;;;7.63;66.41;102172.00;3600319;39;20055;-65
2021/04/08 12:14:53;;;;;;;7.25;6.10;;;;;;;7.52;67.49;102172.59;3600373;39;20065;-66
2021/04/08 12:17:19;;;;;;;8.07;6.20;;;;;;;7.36;66.97;102177.91;3599230;39;20035;-66
2021/04/08 12:19:46;;;;;;;9.65;7.03;;;;;;;7.26;68.90;102176.69;3598112;39;20283;-67
2021/04/08 12:22:14;;;;;;;14.85;7.45;;;;;;;7.49;69.66;102169.22;3599165;39;20117;-65
2021/04/08 12:24:41;;;;;;;10.40;7.35;;;;;;;7.55;68.21;102168.88;3599607;39;20144;-66
2021/04/08 12:27:16;;;;;;;10.48;6.82;;;;;;;7.48;66.16;102159.44;3599236;39;20055;-65
2021/04/08 13:15:55;;;;;;;8.60;6.10;;;;;;;9.49;61.35;102115.47;3632571;22;20260;-68
2021/04/08 13:18:21;;;;;;;10.25;6.80;;;;;;;8.86;63.11;102110.38;3621396;39;20213;-66
2021/04/08 13:20:49;;;;;;;6.90;6.20;;;;;;;8.54;65.21;102112.34;3620715;39;20043;-67
2021/04/08 13:23:15;;;;;;;9.45;6.43;;;;;;;8.69;66.43;102106.03;3622926;39;20097;-67
2021/04/08 13:25:41;;;;;;;8.63;6.20;;;;;;;8.50;66.45;102102.75;3621978;39;20503;-67
2021/04/08 13:28:07;;;;;;;8.90;6.50;;;;;;;8.49;65.98;102106.38;3621146;39;20127;-67
2021/04/08 13:30:34;;;;;;;10.27;6.50;;;;;;;8.77;67.46;102106.44;3621793;39;20379;-67
2021/04/08 13:33:01;;;;;;;10.20;6.28;;;;;;;9.19;65.65;102100.31;3622637;39;20313;-67
2021/04/08 13:35:27;;;;;;;10.13;6.75;;;;;;;9.12;65.71;102099.84;3619160;39;20051;-67
2021/04/08 13:37:56;;;;;;;9.57;6.20;;;;;;;8.60;65.75;102103.91;3620388;39;20049;-66
2021/04/08 13:40:23;;;;;;;6.88;5.90;;;;;;;7.87;66.00;102109.94;3621558;39;20074;-67
2021/04/08 13:42:50;;;;;;;8.15;5.72;;;;;;;8.06;67.83;102105.22;3622446;39;20044;-75
2021/04/08 13:45:16;;;;;;;7.20;5.78;;;;;;;8.15;66.98;102102.97;3619272;39;20031;-69
2021/04/08 13:47:42;;;;;;;9.48;5.80;;;;;;;8.00;68.75;102089.50;3621047;39;20083;-65
2021/04/08 13:50:12;;;;;;;9.18;5.75;;;;;;;7.89;66.86;102086.56;3618935;39;20398;-65
2021/04/08 13:52:38;;;;;;;;;;;;;;;7.82;67.72;102093.25;3622969;39;20043;-64
2021/04/08 13:55:06;;;;;;;7.72;5.60;;;;;;;8.10;68.38;102080.91;3623538;39;20007;-66
2021/04/08 13:57:32;;;;;;;8.35;5.38;;;;;;;7.97;65.44;102083.47;3623266;39;20129;-74